sensor_id;sensor_type;location;lat;lon;timestamp;P1;durP1;ratioP1;P2;durP2;ratioP2
84017;SDS011;74097;51.992;5.890;2023-11-19T00:01:30;4.68;;;1.30;;
84017;SDS011;74097;51.992;5.890;2023-11-19T00:03:55;1.90;;;1.10;;
84017;SDS011;74097;51.992;5.890;2023-11-19T00:06:21;2.05;;;1.20;;
84017;SDS011;74097;51.992;5.890;2023-11-19T00:08:47;2.42;;;1.20;;
84017;SDS011;74097;51.992;5.890;2023-11-19T00:11:12;2.40;;;0.98;;
84017;SDS011;74097;51.992;5.890;2023-11-19T00:13:38;2.63;;;0.90;;
84017;SDS011;74097;51.992;5.890;2023-11-19T00:16:06;2.30;;;1.20;;
84017;SDS011;74097;51.992;5.890;2023-11-19T00:18:32;1.88;;;0.93;;
84017;SDS011;74097;51.992;5.890;2023-11-19T00:20:58;2.40;;;1.17;;
84017;SDS011;74097;51.992;5.890;2023-11-19T00:23:23;3.78;;;1.65;;
84017;SDS011;74097;51.992;5.890;2023-11-19T00:25:49;2.50;;;1.23;;
84017;SDS011;74097;51.992;5.890;2023-11-19T00:28:15;4.43;;;1.10;;
84017;SDS011;74097;51.992;5.890;2023-11-19T00:30:40;2.42;;;1.20;;
84017;SDS011;74097;51.992;5.890;2023-11-19T00:33:08;2.30;;;1.20;;
84017;SDS011;74097;51.992;5.890;2023-11-19T00:35:33;3.47;;;1.55;;
84017;SDS011;74097;51.992;5.890;2023-11-19T00:37:59;2.22;;;1.13;;
84017;SDS011;74097;51.992;5.890;2023-11-19T00:40:25;2.63;;;1.42;;
84017;SDS011;74097;51.992;5.890;2023-11-19T00:42:50;2.13;;;1.00;;
84017;SDS011;74097;51.992;5.890;2023-11-19T00:45:16;2.03;;;1.20;;
84017;SDS011;74097;51.992;5.890;2023-11-19T00:47:42;2.40;;;1.10;;
84017;SDS011;74097;51.992;5.890;2023-11-19T00:50:10;2.90;;;1.10;;
84017;SDS011;74097;51.992;5.890;2023-11-19T00:52:35;2.20;;;1.15;;
84017;SDS011;74097;51.992;5.890;2023-11-19T00:55:02;2.33;;;1.13;;
84017;SDS011;74097;51.992;5.890;2023-11-19T00:57:28;3.00;;;1.30;;
84017;SDS011;74097;51.992;5.890;2023-11-19T00:59:54;2.13;;;1.00;;
84017;SDS011;74097;51.992;5.890;2023-11-19T01:02:20;3.00;;;1.23;;
84017;SDS011;74097;51.992;5.890;2023-11-19T01:04:45;2.30;;;1.00;;
84017;SDS011;74097;51.992;5.890;2023-11-19T01:07:12;3.08;;;1.55;;
84017;SDS011;74097;51.992;5.890;2023-11-19T01:09:38;3.42;;;1.20;;
84017;SDS011;74097;51.992;5.890;2023-11-19T01:12:06;3.00;;;1.30;;
84017;SDS011;74097;51.992;5.890;2023-11-19T01:14:32;3.08;;;1.25;;
84017;SDS011;74097;51.992;5.890;2023-11-19T01:16:58;2.88;;;1.30;;
84017;SDS011;74097;51.992;5.890;2023-11-19T01:19:23;2.75;;;1.17;;
84017;SDS011;74097;51.992;5.890;2023-11-19T01:21:49;3.65;;;1.40;;
84017;SDS011;74097;51.992;5.890;2023-11-19T01:24:17;3.65;;;1.45;;
84017;SDS011;74097;51.992;5.890;2023-11-19T01:26:43;2.83;;;1.23;;
84017;SDS011;74097;51.992;5.890;2023-11-19T01:29:08;3.22;;;1.20;;
84017;SDS011;74097;51.992;5.890;2023-11-19T01:31:34;4.43;;;1.42;;
84017;SDS011;74097;51.992;5.890;2023-11-19T01:34:00;2.83;;;1.42;;
84017;SDS011;74097;51.992;5.890;2023-11-19T01:36:25;5.03;;;1.35;;
84017;SDS011;74097;51.992;5.890;2023-11-19T01:38:51;3.88;;;1.23;;
84017;SDS011;74097;51.992;5.890;2023-11-19T01:41:18;3.53;;;1.20;;
84017;SDS011;74097;51.992;5.890;2023-11-19T01:43:44;4.25;;;1.30;;
84017;SDS011;74097;51.992;5.890;2023-11-19T01:46:10;3.25;;;1.20;;
84017;SDS011;74097;51.992;5.890;2023-11-19T01:48:36;3.72;;;1.40;;
84017;SDS011;74097;51.992;5.890;2023-11-19T01:51:05;3.20;;;1.40;;
84017;SDS011;74097;51.992;5.890;2023-11-19T01:53:33;2.80;;;1.30;;
84017;SDS011;74097;51.992;5.890;2023-11-19T01:55:59;4.68;;;1.65;;
84017;SDS011;74097;51.992;5.890;2023-11-19T01:58:27;5.05;;;1.70;;
84017;SDS011;74097;51.992;5.890;2023-11-19T02:00:53;4.85;;;1.63;;
84017;SDS011;74097;51.992;5.890;2023-11-19T02:03:19;4.72;;;1.45;;
84017;SDS011;74097;51.992;5.890;2023-11-19T02:05:46;5.18;;;1.40;;
84017;SDS011;74097;51.992;5.890;2023-11-19T02:08:14;3.30;;;1.50;;
84017;SDS011;74097;51.992;5.890;2023-11-19T02:10:41;5.90;;;1.50;;
84017;SDS011;74097;51.992;5.890;2023-11-19T02:13:06;4.20;;;1.42;;
84017;SDS011;74097;51.992;5.890;2023-11-19T02:15:34;6.22;;;1.70;;
84017;SDS011;74097;51.992;5.890;2023-11-19T02:20:43;3.28;;;1.38;;
84017;SDS011;74097;51.992;5.890;2023-11-19T02:23:09;6.15;;;1.45;;
84017;SDS011;74097;51.992;5.890;2023-11-19T02:25:35;3.90;;;1.27;;
84017;SDS011;74097;51.992;5.890;2023-11-19T02:28:03;4.75;;;1.38;;
84017;SDS011;74097;51.992;5.890;2023-11-19T02:30:29;5.35;;;1.52;;
84017;SDS011;74097;51.992;5.890;2023-11-19T02:32:55;4.38;;;1.25;;
84017;SDS011;74097;51.992;5.890;2023-11-19T02:35:21;5.15;;;1.60;;
84017;SDS011;74097;51.992;5.890;2023-11-19T02:37:47;5.32;;;1.63;;
84017;SDS011;74097;51.992;5.890;2023-11-19T02:40:13;3.45;;;1.38;;
84017;SDS011;74097;51.992;5.890;2023-11-19T02:42:38;5.43;;;1.50;;
84017;SDS011;74097;51.992;5.890;2023-11-19T02:45:06;6.00;;;1.90;;
84017;SDS011;74097;51.992;5.890;2023-11-19T02:47:33;6.95;;;1.40;;
84017;SDS011;74097;51.992;5.890;2023-11-19T02:49:59;8.90;;;1.85;;
84017;SDS011;74097;51.992;5.890;2023-11-19T02:52:25;5.18;;;1.60;;
84017;SDS011;74097;51.992;5.890;2023-11-19T02:54:51;5.07;;;1.58;;
84017;SDS011;74097;51.992;5.890;2023-11-19T02:57:16;5.03;;;1.63;;
84017;SDS011;74097;51.992;5.890;2023-11-19T02:59:42;6.45;;;1.48;;
84017;SDS011;74097;51.992;5.890;2023-11-19T03:02:09;6.25;;;1.85;;
84017;SDS011;74097;51.992;5.890;2023-11-19T03:04:35;6.35;;;1.90;;
84017;SDS011;74097;51.992;5.890;2023-11-19T03:07:01;6.28;;;1.58;;
84017;SDS011;74097;51.992;5.890;2023-11-19T03:09:26;5.07;;;1.65;;
84017;SDS011;74097;51.992;5.890;2023-11-19T03:11:52;6.40;;;2.00;;
84017;SDS011;74097;51.992;5.890;2023-11-19T03:14:18;7.57;;;1.73;;
84017;SDS011;74097;51.992;5.890;2023-11-19T03:16:44;8.18;;;1.77;;
84017;SDS011;74097;51.992;5.890;2023-11-19T03:19:11;8.25;;;1.63;;
84017;SDS011;74097;51.992;5.890;2023-11-19T03:21:37;4.47;;;1.73;;
84017;SDS011;74097;51.992;5.890;2023-11-19T03:24:03;8.02;;;1.83;;
84017;SDS011;74097;51.992;5.890;2023-11-19T03:26:29;6.03;;;1.83;;
84017;SDS011;74097;51.992;5.890;2023-11-19T03:28:55;10.57;;;2.53;;
84017;SDS011;74097;51.992;5.890;2023-11-19T03:31:21;7.65;;;2.58;;
84017;SDS011;74097;51.992;5.890;2023-11-19T03:33:46;5.65;;;1.65;;
84017;SDS011;74097;51.992;5.890;2023-11-19T03:36:14;4.72;;;1.70;;
84017;SDS011;74097;51.992;5.890;2023-11-19T03:38:39;6.85;;;1.90;;
84017;SDS011;74097;51.992;5.890;2023-11-19T03:41:10;7.05;;;1.75;;
84017;SDS011;74097;51.992;5.890;2023-11-19T03:43:35;8.27;;;2.03;;
84017;SDS011;74097;51.992;5.890;2023-11-19T03:46:01;8.38;;;2.10;;
84017;SDS011;74097;51.992;5.890;2023-11-19T03:48:27;9.60;;;2.47;;
84017;SDS011;74097;51.992;5.890;2023-11-19T03:50:52;10.73;;;2.60;;
84017;SDS011;74097;51.992;5.890;2023-11-19T03:53:19;7.00;;;2.47;;
84017;SDS011;74097;51.992;5.890;2023-11-19T03:55:45;7.20;;;1.83;;
84017;SDS011;74097;51.992;5.890;2023-11-19T03:58:11;7.25;;;2.03;;
84017;SDS011;74097;51.992;5.890;2023-11-19T04:00:36;12.93;;;2.60;;
84017;SDS011;74097;51.992;5.890;2023-11-19T04:03:02;8.25;;;2.13;;
84017;SDS011;74097;51.992;5.890;2023-11-19T04:05:28;8.63;;;2.47;;
84017;SDS011;74097;51.992;5.890;2023-11-19T04:07:54;7.75;;;2.15;;
84017;SDS011;74097;51.992;5.890;2023-11-19T04:10:21;5.65;;;1.70;;
84017;SDS011;74097;51.992;5.890;2023-11-19T04:12:46;9.15;;;2.70;;
84017;SDS011;74097;51.992;5.890;2023-11-19T04:15:13;8.68;;;2.40;;
84017;SDS011;74097;51.992;5.890;2023-11-19T04:17:39;9.90;;;2.40;;
84017;SDS011;74097;51.992;5.890;2023-11-19T04:20:05;9.27;;;2.00;;
84017;SDS011;74097;51.992;5.890;2023-11-19T04:22:32;7.10;;;1.92;;
84017;SDS011;74097;51.992;5.890;2023-11-19T04:24:57;9.10;;;2.30;;
84017;SDS011;74097;51.992;5.890;2023-11-19T04:27:24;10.73;;;2.67;;
84017;SDS011;74097;51.992;5.890;2023-11-19T04:29:50;10.82;;;2.58;;
84017;SDS011;74097;51.992;5.890;2023-11-19T04:32:16;10.98;;;2.58;;
84017;SDS011;74097;51.992;5.890;2023-11-19T04:34:41;10.45;;;2.45;;
84017;SDS011;74097;51.992;5.890;2023-11-19T04:37:07;12.80;;;2.72;;
84017;SDS011;74097;51.992;5.890;2023-11-19T04:39:33;13.05;;;2.20;;
84017;SDS011;74097;51.992;5.890;2023-11-19T04:41:59;11.85;;;3.15;;
84017;SDS011;74097;51.992;5.890;2023-11-19T04:44:26;9.80;;;2.30;;
84017;SDS011;74097;51.992;5.890;2023-11-19T04:46:51;11.85;;;3.00;;
84017;SDS011;74097;51.992;5.890;2023-11-19T04:49:17;9.02;;;2.35;;
84017;SDS011;74097;51.992;5.890;2023-11-19T04:51:43;10.80;;;2.70;;
84017;SDS011;74097;51.992;5.890;2023-11-19T04:54:09;9.27;;;2.58;;
84017;SDS011;74097;51.992;5.890;2023-11-19T04:56:35;10.95;;;2.65;;
84017;SDS011;74097;51.992;5.890;2023-11-19T04:59:01;8.57;;;2.50;;
84017;SDS011;74097;51.992;5.890;2023-11-19T05:01:28;14.63;;;2.67;;
84017;SDS011;74097;51.992;5.890;2023-11-19T05:03:55;10.70;;;2.63;;
84017;SDS011;74097;51.992;5.890;2023-11-19T05:06:21;10.13;;;2.38;;
84017;SDS011;74097;51.992;5.890;2023-11-19T05:08:47;14.07;;;3.20;;
84017;SDS011;74097;51.992;5.890;2023-11-19T05:11:13;13.65;;;3.33;;
84017;SDS011;74097;51.992;5.890;2023-11-19T05:13:38;12.57;;;2.90;;
84017;SDS011;74097;51.992;5.890;2023-11-19T05:16:04;12.57;;;2.67;;
84017;SDS011;74097;51.992;5.890;2023-11-19T05:18:32;10.30;;;2.72;;
84017;SDS011;74097;51.992;5.890;2023-11-19T05:20:58;13.65;;;2.60;;
84017;SDS011;74097;51.992;5.890;2023-11-19T05:23:23;11.02;;;2.22;;
84017;SDS011;74097;51.992;5.890;2023-11-19T05:25:49;8.18;;;2.22;;
84017;SDS011;74097;51.992;5.890;2023-11-19T05:28:15;7.28;;;2.08;;
84017;SDS011;74097;51.992;5.890;2023-11-19T05:30:40;11.05;;;2.60;;
84017;SDS011;74097;51.992;5.890;2023-11-19T05:33:06;13.25;;;2.83;;
84017;SDS011;74097;51.992;5.890;2023-11-19T05:35:33;10.38;;;2.45;;
84017;SDS011;74097;51.992;5.890;2023-11-19T05:37:59;7.25;;;2.35;;
84017;SDS011;74097;51.992;5.890;2023-11-19T05:40:25;9.68;;;2.65;;
84017;SDS011;74097;51.992;5.890;2023-11-19T05:42:51;14.80;;;2.58;;
84017;SDS011;74097;51.992;5.890;2023-11-19T05:45:16;11.98;;;2.90;;
84017;SDS011;74097;51.992;5.890;2023-11-19T05:47:42;9.60;;;2.58;;
84017;SDS011;74097;51.992;5.890;2023-11-19T05:50:08;11.55;;;2.85;;
84017;SDS011;74097;51.992;5.890;2023-11-19T05:52:36;11.32;;;2.85;;
84017;SDS011;74097;51.992;5.890;2023-11-19T05:55:02;6.82;;;2.13;;
84017;SDS011;74097;51.992;5.890;2023-11-19T05:57:28;13.25;;;3.13;;
84017;SDS011;74097;51.992;5.890;2023-11-19T05:59:53;12.55;;;2.47;;
84017;SDS011;74097;51.992;5.890;2023-11-19T06:02:19;14.15;;;2.85;;
84017;SDS011;74097;51.992;5.890;2023-11-19T06:04:45;10.05;;;2.55;;
84017;SDS011;74097;51.992;5.890;2023-11-19T06:07:10;15.13;;;3.22;;
84017;SDS011;74097;51.992;5.890;2023-11-19T06:09:37;16.00;;;2.88;;
84017;SDS011;74097;51.992;5.890;2023-11-19T06:12:03;13.38;;;2.67;;
84017;SDS011;74097;51.992;5.890;2023-11-19T06:14:29;12.90;;;2.97;;
84017;SDS011;74097;51.992;5.890;2023-11-19T06:16:55;13.73;;;2.85;;
84017;SDS011;74097;51.992;5.890;2023-11-19T06:19:21;10.82;;;2.53;;
84017;SDS011;74097;51.992;5.890;2023-11-19T06:21:46;11.05;;;2.63;;
84017;SDS011;74097;51.992;5.890;2023-11-19T06:24:13;11.85;;;2.80;;
84017;SDS011;74097;51.992;5.890;2023-11-19T06:26:40;14.07;;;3.05;;
84017;SDS011;74097;51.992;5.890;2023-11-19T06:29:06;9.75;;;2.47;;
84017;SDS011;74097;51.992;5.890;2023-11-19T06:31:32;11.70;;;2.97;;
84017;SDS011;74097;51.992;5.890;2023-11-19T06:33:57;12.02;;;2.60;;
84017;SDS011;74097;51.992;5.890;2023-11-19T06:36:23;14.40;;;3.20;;
84017;SDS011;74097;51.992;5.890;2023-11-19T06:38:49;13.93;;;3.25;;
84017;SDS011;74097;51.992;5.890;2023-11-19T06:41:15;15.45;;;2.97;;
84017;SDS011;74097;51.992;5.890;2023-11-19T06:43:42;9.77;;;2.67;;
84017;SDS011;74097;51.992;5.890;2023-11-19T06:46:14;11.82;;;2.90;;
84017;SDS011;74097;51.992;5.890;2023-11-19T06:48:40;14.25;;;3.00;;
84017;SDS011;74097;51.992;5.890;2023-11-19T06:51:06;10.52;;;2.58;;
84017;SDS011;74097;51.992;5.890;2023-11-19T06:53:31;11.98;;;2.50;;
84017;SDS011;74097;51.992;5.890;2023-11-19T06:55:57;10.70;;;2.63;;
84017;SDS011;74097;51.992;5.890;2023-11-19T06:58:23;12.38;;;2.85;;
84017;SDS011;74097;51.992;5.890;2023-11-19T07:00:50;10.63;;;2.35;;
84017;SDS011;74097;51.992;5.890;2023-11-19T07:03:15;11.05;;;2.63;;
84017;SDS011;74097;51.992;5.890;2023-11-19T07:05:41;11.40;;;2.78;;
84017;SDS011;74097;51.992;5.890;2023-11-19T07:08:07;17.13;;;2.92;;
84017;SDS011;74097;51.992;5.890;2023-11-19T07:10:32;15.40;;;3.00;;
84017;SDS011;74097;51.992;5.890;2023-11-19T07:12:58;20.35;;;3.55;;
84017;SDS011;74097;51.992;5.890;2023-11-19T07:15:24;15.90;;;2.83;;
84017;SDS011;74097;51.992;5.890;2023-11-19T07:17:51;16.02;;;2.95;;
84017;SDS011;74097;51.992;5.890;2023-11-19T07:20:17;13.23;;;2.92;;
84017;SDS011;74097;51.992;5.890;2023-11-19T07:22:43;13.55;;;2.72;;
84017;SDS011;74097;51.992;5.890;2023-11-19T07:25:08;13.93;;;2.78;;
84017;SDS011;74097;51.992;5.890;2023-11-19T07:27:34;12.02;;;2.95;;
84017;SDS011;74097;51.992;5.890;2023-11-19T07:30:00;12.98;;;2.88;;
84017;SDS011;74097;51.992;5.890;2023-11-19T07:32:25;16.25;;;2.83;;
84017;SDS011;74097;51.992;5.890;2023-11-19T07:34:52;17.13;;;2.90;;
84017;SDS011;74097;51.992;5.890;2023-11-19T07:37:18;13.43;;;3.35;;
84017;SDS011;74097;51.992;5.890;2023-11-19T07:39:45;13.18;;;3.10;;
84017;SDS011;74097;51.992;5.890;2023-11-19T07:42:10;16.55;;;2.80;;
84017;SDS011;74097;51.992;5.890;2023-11-19T07:44:36;15.07;;;3.58;;
84017;SDS011;74097;51.992;5.890;2023-11-19T07:47:02;13.55;;;2.40;;
84017;SDS011;74097;51.992;5.890;2023-11-19T07:49:28;13.15;;;2.53;;
84017;SDS011;74097;51.992;5.890;2023-11-19T07:51:55;14.52;;;2.70;;
84017;SDS011;74097;51.992;5.890;2023-11-19T07:54:20;15.32;;;3.40;;
84017;SDS011;74097;51.992;5.890;2023-11-19T07:56:46;10.48;;;2.17;;
84017;SDS011;74097;51.992;5.890;2023-11-19T07:59:12;12.38;;;2.78;;
84017;SDS011;74097;51.992;5.890;2023-11-19T08:01:37;13.48;;;2.97;;
84017;SDS011;74097;51.992;5.890;2023-11-19T08:04:03;12.77;;;2.85;;
84017;SDS011;74097;51.992;5.890;2023-11-19T08:06:29;10.50;;;2.45;;
84017;SDS011;74097;51.992;5.890;2023-11-19T08:08:56;16.13;;;3.22;;
84017;SDS011;74097;51.992;5.890;2023-11-19T08:11:22;12.30;;;2.50;;
84017;SDS011;74097;51.992;5.890;2023-11-19T08:13:48;10.50;;;2.63;;
84017;SDS011;74097;51.992;5.890;2023-11-19T08:16:14;11.60;;;2.58;;
84017;SDS011;74097;51.992;5.890;2023-11-19T08:18:40;13.98;;;2.80;;
84017;SDS011;74097;51.992;5.890;2023-11-19T08:21:06;11.68;;;2.70;;
84017;SDS011;74097;51.992;5.890;2023-11-19T08:23:32;11.50;;;2.47;;
84017;SDS011;74097;51.992;5.890;2023-11-19T08:25:59;13.05;;;2.55;;
84017;SDS011;74097;51.992;5.890;2023-11-19T08:28:25;11.18;;;2.47;;
84017;SDS011;74097;51.992;5.890;2023-11-19T08:30:50;18.88;;;3.53;;
84017;SDS011;74097;51.992;5.890;2023-11-19T08:33:16;12.63;;;2.92;;
84017;SDS011;74097;51.992;5.890;2023-11-19T08:35:42;18.02;;;4.40;;
84017;SDS011;74097;51.992;5.890;2023-11-19T08:38:07;16.23;;;2.97;;
84017;SDS011;74097;51.992;5.890;2023-11-19T08:40:33;11.13;;;2.58;;
84017;SDS011;74097;51.992;5.890;2023-11-19T08:43:00;15.27;;;2.80;;
84017;SDS011;74097;51.992;5.890;2023-11-19T08:45:26;16.38;;;2.92;;
84017;SDS011;74097;51.992;5.890;2023-11-19T08:47:52;15.23;;;3.15;;
84017;SDS011;74097;51.992;5.890;2023-11-19T08:50:17;11.05;;;2.70;;
84017;SDS011;74097;51.992;5.890;2023-11-19T08:52:43;10.70;;;2.55;;
84017;SDS011;74097;51.992;5.890;2023-11-19T08:55:09;11.88;;;2.35;;
84017;SDS011;74097;51.992;5.890;2023-11-19T08:57:34;10.40;;;2.80;;
84017;SDS011;74097;51.992;5.890;2023-11-19T09:00:01;13.27;;;2.47;;
84017;SDS011;74097;51.992;5.890;2023-11-19T09:02:27;12.77;;;2.63;;
84017;SDS011;74097;51.992;5.890;2023-11-19T09:04:53;11.65;;;2.55;;
84017;SDS011;74097;51.992;5.890;2023-11-19T09:07:19;13.63;;;2.55;;
84017;SDS011;74097;51.992;5.890;2023-11-19T09:09:44;14.02;;;2.60;;
84017;SDS011;74097;51.992;5.890;2023-11-19T09:12:10;13.77;;;2.78;;
84017;SDS011;74097;51.992;5.890;2023-11-19T09:14:36;12.45;;;2.67;;
84017;SDS011;74097;51.992;5.890;2023-11-19T09:17:03;15.98;;;2.72;;
84017;SDS011;74097;51.992;5.890;2023-11-19T09:19:29;8.98;;;2.25;;
84017;SDS011;74097;51.992;5.890;2023-11-19T09:21:57;10.85;;;2.42;;
84017;SDS011;74097;51.992;5.890;2023-11-19T09:24:23;11.18;;;2.53;;
84017;SDS011;74097;51.992;5.890;2023-11-19T09:26:49;12.93;;;2.58;;
84017;SDS011;74097;51.992;5.890;2023-11-19T09:29:14;11.02;;;2.75;;
84017;SDS011;74097;51.992;5.890;2023-11-19T09:31:40;13.20;;;2.55;;
84017;SDS011;74097;51.992;5.890;2023-11-19T09:34:07;10.88;;;2.50;;
84017;SDS011;74097;51.992;5.890;2023-11-19T09:36:33;15.77;;;2.75;;
84017;SDS011;74097;51.992;5.890;2023-11-19T09:38:58;16.90;;;3.15;;
84017;SDS011;74097;51.992;5.890;2023-11-19T09:41:24;15.52;;;2.63;;
84017;SDS011;74097;51.992;5.890;2023-11-19T09:43:50;10.68;;;2.38;;
84017;SDS011;74097;51.992;5.890;2023-11-19T09:46:16;13.73;;;2.30;;
84017;SDS011;74097;51.992;5.890;2023-11-19T09:48:42;10.80;;;2.55;;
84017;SDS011;74097;51.992;5.890;2023-11-19T09:51:10;10.77;;;2.83;;
84017;SDS011;74097;51.992;5.890;2023-11-19T09:53:37;12.73;;;2.75;;
84017;SDS011;74097;51.992;5.890;2023-11-19T09:56:03;12.90;;;2.42;;
84017;SDS011;74097;51.992;5.890;2023-11-19T09:58:30;11.00;;;2.30;;
84017;SDS011;74097;51.992;5.890;2023-11-19T10:00:56;11.13;;;2.30;;
84017;SDS011;74097;51.992;5.890;2023-11-19T10:03:21;13.27;;;2.88;;
84017;SDS011;74097;51.992;5.890;2023-11-19T10:05:48;12.48;;;2.47;;
84017;SDS011;74097;51.992;5.890;2023-11-19T10:08:15;9.30;;;2.33;;
84017;SDS011;74097;51.992;5.890;2023-11-19T10:10:41;13.32;;;3.00;;
84017;SDS011;74097;51.992;5.890;2023-11-19T10:13:07;12.65;;;2.38;;
84017;SDS011;74097;51.992;5.890;2023-11-19T10:15:33;13.68;;;2.92;;
84017;SDS011;74097;51.992;5.890;2023-11-19T10:18:01;15.48;;;3.00;;
84017;SDS011;74097;51.992;5.890;2023-11-19T10:20:28;11.10;;;2.03;;
84017;SDS011;74097;51.992;5.890;2023-11-19T10:22:53;15.68;;;2.88;;
84017;SDS011;74097;51.992;5.890;2023-11-19T10:25:24;16.02;;;3.03;;
84017;SDS011;74097;51.992;5.890;2023-11-19T10:27:51;11.40;;;2.47;;
84017;SDS011;74097;51.992;5.890;2023-11-19T10:30:20;14.50;;;2.97;;
84017;SDS011;74097;51.992;5.890;2023-11-19T10:32:50;18.92;;;3.25;;
84017;SDS011;74097;51.992;5.890;2023-11-19T10:35:28;11.68;;;2.53;;
84017;SDS011;74097;51.992;5.890;2023-11-19T10:37:54;18.00;;;3.22;;
84017;SDS011;74097;51.992;5.890;2023-11-19T10:40:19;15.50;;;3.40;;
84017;SDS011;74097;51.992;5.890;2023-11-19T10:42:46;14.93;;;2.67;;
84017;SDS011;74097;51.992;5.890;2023-11-19T10:45:21;13.02;;;2.60;;
84017;SDS011;74097;51.992;5.890;2023-11-19T10:47:47;10.40;;;2.65;;
84017;SDS011;74097;51.992;5.890;2023-11-19T10:50:14;15.55;;;2.92;;
84017;SDS011;74097;51.992;5.890;2023-11-19T10:52:39;12.77;;;2.33;;
84017;SDS011;74097;51.992;5.890;2023-11-19T10:55:06;12.43;;;2.30;;
84017;SDS011;74097;51.992;5.890;2023-11-19T10:57:36;11.25;;;3.00;;
84017;SDS011;74097;51.992;5.890;2023-11-19T11:00:05;11.85;;;2.40;;
84017;SDS011;74097;51.992;5.890;2023-11-19T11:02:33;11.93;;;2.67;;
84017;SDS011;74097;51.992;5.890;2023-11-19T11:05:05;12.97;;;2.27;;
84017;SDS011;74097;51.992;5.890;2023-11-19T11:07:32;13.35;;;2.88;;
84017;SDS011;74097;51.992;5.890;2023-11-19T11:09:59;12.75;;;2.58;;
84017;SDS011;74097;51.992;5.890;2023-11-19T11:12:26;10.85;;;2.30;;
84017;SDS011;74097;51.992;5.890;2023-11-19T11:14:53;11.50;;;2.78;;
84017;SDS011;74097;51.992;5.890;2023-11-19T11:17:21;13.40;;;2.53;;
84017;SDS011;74097;51.992;5.890;2023-11-19T11:19:51;12.57;;;3.08;;
84017;SDS011;74097;51.992;5.890;2023-11-19T11:22:16;12.40;;;2.55;;
84017;SDS011;74097;51.992;5.890;2023-11-19T11:24:48;12.93;;;2.33;;
84017;SDS011;74097;51.992;5.890;2023-11-19T11:27:36;12.05;;;2.58;;
84017;SDS011;74097;51.992;5.890;2023-11-19T11:30:26;12.02;;;2.70;;
84017;SDS011;74097;51.992;5.890;2023-11-19T11:33:05;9.68;;;2.53;;
84017;SDS011;74097;51.992;5.890;2023-11-19T11:35:46;12.32;;;2.38;;
84017;SDS011;74097;51.992;5.890;2023-11-19T11:38:21;12.25;;;2.55;;
84017;SDS011;74097;51.992;5.890;2023-11-19T11:43:43;12.70;;;2.08;;
84017;SDS011;74097;51.992;5.890;2023-11-19T11:46:11;11.13;;;2.45;;
84017;SDS011;74097;51.992;5.890;2023-11-19T11:49:17;11.93;;;2.47;;
84017;SDS011;74097;51.992;5.890;2023-11-19T11:52:00;9.68;;;2.17;;
84017;SDS011;74097;51.992;5.890;2023-11-19T11:54:27;11.88;;;2.63;;
84017;SDS011;74097;51.992;5.890;2023-11-19T11:57:00;13.93;;;2.50;;
84017;SDS011;74097;51.992;5.890;2023-11-19T11:59:36;14.75;;;3.42;;
84017;SDS011;74097;51.992;5.890;2023-11-19T12:02:10;12.40;;;2.95;;
84017;SDS011;74097;51.992;5.890;2023-11-19T12:04:38;11.02;;;3.25;;
84017;SDS011;74097;51.992;5.890;2023-11-19T12:07:05;11.93;;;2.50;;
84017;SDS011;74097;51.992;5.890;2023-11-19T12:09:31;14.70;;;2.85;;
84017;SDS011;74097;51.992;5.890;2023-11-19T12:12:07;10.30;;;2.90;;
84017;SDS011;74097;51.992;5.890;2023-11-19T12:17:37;19.08;;;3.17;;
84017;SDS011;74097;51.992;5.890;2023-11-19T12:20:08;11.77;;;2.78;;
84017;SDS011;74097;51.992;5.890;2023-11-19T12:22:34;11.82;;;2.55;;
84017;SDS011;74097;51.992;5.890;2023-11-19T12:25:02;12.88;;;2.90;;
84017;SDS011;74097;51.992;5.890;2023-11-19T12:27:29;15.82;;;2.78;;
84017;SDS011;74097;51.992;5.890;2023-11-19T12:29:55;14.93;;;3.00;;
84017;SDS011;74097;51.992;5.890;2023-11-19T12:32:20;16.10;;;2.88;;
84017;SDS011;74097;51.992;5.890;2023-11-19T12:34:46;13.95;;;2.85;;
84017;SDS011;74097;51.992;5.890;2023-11-19T12:37:13;15.75;;;3.95;;
84017;SDS011;74097;51.992;5.890;2023-11-19T12:39:39;14.50;;;3.00;;
84017;SDS011;74097;51.992;5.890;2023-11-19T12:42:05;13.43;;;2.92;;
84017;SDS011;74097;51.992;5.890;2023-11-19T12:44:30;17.67;;;3.20;;
84017;SDS011;74097;51.992;5.890;2023-11-19T12:47:03;14.68;;;3.42;;
84017;SDS011;74097;51.992;5.890;2023-11-19T12:49:30;14.13;;;3.03;;
84017;SDS011;74097;51.992;5.890;2023-11-19T12:51:55;10.95;;;2.70;;
84017;SDS011;74097;51.992;5.890;2023-11-19T12:54:32;14.18;;;2.72;;
84017;SDS011;74097;51.992;5.890;2023-11-19T12:56:58;14.32;;;2.88;;
84017;SDS011;74097;51.992;5.890;2023-11-19T12:59:24;15.93;;;2.88;;
84017;SDS011;74097;51.992;5.890;2023-11-19T13:01:53;11.82;;;3.13;;
84017;SDS011;74097;51.992;5.890;2023-11-19T13:04:19;16.00;;;3.30;;
84017;SDS011;74097;51.992;5.890;2023-11-19T13:06:45;12.57;;;2.60;;
84017;SDS011;74097;51.992;5.890;2023-11-19T13:09:22;14.68;;;2.85;;
84017;SDS011;74097;51.992;5.890;2023-11-19T13:11:50;10.60;;;2.67;;
84017;SDS011;74097;51.992;5.890;2023-11-19T13:14:15;10.68;;;2.35;;
84017;SDS011;74097;51.992;5.890;2023-11-19T13:16:41;10.98;;;2.78;;
84017;SDS011;74097;51.992;5.890;2023-11-19T13:19:07;16.38;;;2.80;;
84017;SDS011;74097;51.992;5.890;2023-11-19T13:21:33;11.57;;;2.67;;
84017;SDS011;74097;51.992;5.890;2023-11-19T13:23:59;13.02;;;2.70;;
84017;SDS011;74097;51.992;5.890;2023-11-19T13:26:24;11.00;;;2.33;;
84017;SDS011;74097;51.992;5.890;2023-11-19T13:28:51;10.55;;;2.47;;
84017;SDS011;74097;51.992;5.890;2023-11-19T13:31:17;12.68;;;2.80;;
84017;SDS011;74097;51.992;5.890;2023-11-19T13:33:43;11.73;;;2.10;;
84017;SDS011;74097;51.992;5.890;2023-11-19T13:36:08;8.98;;;2.10;;
84017;SDS011;74097;51.992;5.890;2023-11-19T13:38:34;13.25;;;2.15;;
84017;SDS011;74097;51.992;5.890;2023-11-19T13:41:00;10.52;;;2.13;;
84017;SDS011;74097;51.992;5.890;2023-11-19T13:43:26;11.55;;;2.15;;
84017;SDS011;74097;51.992;5.890;2023-11-19T13:45:54;11.85;;;2.50;;
84017;SDS011;74097;51.992;5.890;2023-11-19T13:48:19;14.27;;;2.38;;
84017;SDS011;74097;51.992;5.890;2023-11-19T13:50:45;8.35;;;2.08;;
84017;SDS011;74097;51.992;5.890;2023-11-19T13:53:11;10.25;;;2.42;;
84017;SDS011;74097;51.992;5.890;2023-11-19T13:55:36;9.80;;;2.03;;
84017;SDS011;74097;51.992;5.890;2023-11-19T13:58:02;11.88;;;2.08;;
84017;SDS011;74097;51.992;5.890;2023-11-19T14:00:28;8.07;;;2.00;;
84017;SDS011;74097;51.992;5.890;2023-11-19T14:02:55;10.85;;;2.40;;
84017;SDS011;74097;51.992;5.890;2023-11-19T14:05:21;14.55;;;2.08;;
84017;SDS011;74097;51.992;5.890;2023-11-19T14:07:47;7.20;;;1.95;;
84017;SDS011;74097;51.992;5.890;2023-11-19T14:10:12;11.90;;;2.05;;
84017;SDS011;74097;51.992;5.890;2023-11-19T14:12:39;9.02;;;2.08;;
84017;SDS011;74097;51.992;5.890;2023-11-19T14:15:05;10.00;;;2.47;;
84017;SDS011;74097;51.992;5.890;2023-11-19T14:17:31;8.60;;;2.00;;
84017;SDS011;74097;51.992;5.890;2023-11-19T14:19:58;10.75;;;2.17;;
84017;SDS011;74097;51.992;5.890;2023-11-19T14:22:24;10.88;;;2.40;;
84017;SDS011;74097;51.992;5.890;2023-11-19T14:24:49;10.43;;;2.20;;
84017;SDS011;74097;51.992;5.890;2023-11-19T14:27:15;8.02;;;1.98;;
84017;SDS011;74097;51.992;5.890;2023-11-19T14:29:41;11.25;;;2.30;;
84017;SDS011;74097;51.992;5.890;2023-11-19T14:32:07;8.32;;;2.00;;
84017;SDS011;74097;51.992;5.890;2023-11-19T14:34:32;7.70;;;2.15;;
84017;SDS011;74097;51.992;5.890;2023-11-19T14:36:59;11.82;;;2.47;;
84017;SDS011;74097;51.992;5.890;2023-11-19T14:39:25;8.93;;;2.53;;
84017;SDS011;74097;51.992;5.890;2023-11-19T14:41:51;11.70;;;2.30;;
84017;SDS011;74097;51.992;5.890;2023-11-19T14:44:16;12.35;;;2.25;;